createdAt,value
2022-08-05T00:00:53.178Z,50.07
2022-08-05T00:03:57.033Z,50.39
2022-08-05T00:07:00.171Z,48.70
2022-08-05T00:10:27.268Z,49.31
2022-08-05T00:13:38.942Z,48.68
2022-08-05T00:16:52.433Z,48.82
2022-08-05T00:20:02.520Z,48.17
2022-08-05T00:23:13.039Z,48.85
2022-08-05T00:26:17.796Z,48.81
2022-08-05T00:29:25.382Z,48.09
2022-08-05T00:32:28.141Z,48.89
2022-08-05T00:35:36.331Z,48.42
2022-08-05T00:38:55.732Z,48.53
2022-08-05T00:42:01.921Z,48.91
2022-08-05T00:45:11.762Z,49.19
2022-08-05T00:48:18.487Z,49.85
2022-08-05T00:51:50.030Z,50.30
2022-08-05T00:54:52.550Z,50.39
2022-08-05T00:57:58.643Z,50.87
2022-08-05T01:01:03.727Z,51.13
2022-08-05T01:04:20.276Z,51.39
2022-08-05T01:07:31.712Z,51.80
2022-08-05T01:10:55.057Z,51.99
2022-08-05T01:14:00.323Z,52.69
2022-08-05T01:17:07.408Z,53.19
2022-08-05T01:23:36.699Z,53.41
2022-08-05T01:26:45.481Z,54.29
2022-08-05T01:29:54.722Z,54.47
2022-08-05T01:33:08.391Z,54.36
2022-08-05T01:39:59.176Z,55.16
2022-08-05T01:43:03.600Z,55.06
2022-08-05T01:46:07.211Z,55.79
2022-08-05T01:49:23.246Z,56.02
2022-08-05T01:52:33.012Z,56.08
2022-08-05T01:55:38.711Z,57.41
2022-08-05T01:58:45.602Z,57.38
2022-08-05T02:01:50.997Z,57.48
2022-08-05T02:04:58.327Z,57.96
2022-08-05T02:08:01.826Z,58.29
2022-08-05T02:11:11.760Z,58.87
2022-08-05T02:14:23.360Z,58.80
2022-08-05T02:18:32.102Z,59.17
2022-08-05T02:21:03.835Z,59.20
2022-08-05T02:24:10.812Z,59.35
2022-08-05T02:27:17.643Z,59.77
2022-08-05T02:30:51.700Z,60.43
2022-08-05T02:34:19.383Z,60.65
2022-08-05T02:37:22.662Z,61.30
2022-08-05T02:40:26.312Z,61.34
2022-08-05T02:43:34.470Z,61.37
2022-08-05T02:47:00.346Z,61.96
2022-08-05T02:50:06.535Z,61.62
2022-08-05T02:53:18.727Z,61.43
2022-08-05T02:56:21.956Z,61.59
2022-08-05T02:59:27.060Z,62.51
2022-08-05T03:02:44.277Z,61.89
2022-08-05T03:06:55.097Z,61.75
2022-08-05T03:09:15.825Z,61.40
2022-08-05T03:12:41.944Z,61.30
2022-08-05T03:15:45.759Z,59.12
2022-08-05T03:18:48.773Z,58.56
2022-08-05T03:22:16.243Z,58.55
2022-08-05T03:25:59.755Z,58.95
2022-08-05T03:28:43.029Z,58.92
2022-08-05T03:31:57.417Z,59.10
2022-08-05T03:35:04.492Z,59.05
2022-08-05T03:38:14.319Z,59.44
2022-08-05T03:41:19.022Z,59.51
2022-08-05T03:44:29.072Z,59.18
2022-08-05T03:47:35.554Z,58.76
2022-08-05T03:52:48.835Z,58.66
2022-08-05T03:55:49.743Z,59.29
2022-08-05T03:58:00.471Z,59.65
2022-08-05T04:01:05.020Z,60.57
2022-08-05T04:04:10.673Z,60.43
2022-08-05T04:07:17.784Z,60.12
2022-08-05T04:10:37.569Z,59.98
2022-08-05T04:13:51.389Z,59.95
2022-08-05T04:16:57.385Z,59.32
2022-08-05T04:19:59.381Z,59.42
2022-08-05T04:23:01.958Z,59.22
2022-08-05T04:26:04.673Z,58.87
2022-08-05T04:29:07.830Z,58.89
2022-08-05T04:32:11.737Z,58.58
2022-08-05T04:35:19.690Z,58.52
2022-08-05T04:38:39.178Z,58.14
2022-08-05T04:41:42.475Z,58.09
2022-08-05T04:44:46.551Z,57.77
2022-08-05T04:47:50.420Z,57.69
2022-08-05T04:51:02.949Z,56.88
2022-08-05T04:54:20.018Z,55.55
2022-08-05T04:57:22.276Z,55.02
2022-08-05T05:00:31.270Z,54.72
2022-08-05T05:03:41.892Z,55.50
2022-08-05T05:06:52.010Z,56.08
2022-08-05T05:10:02.124Z,55.60
2022-08-05T05:13:06.083Z,55.88
2022-08-05T05:16:08.554Z,54.88
2022-08-05T05:19:18.629Z,53.98
2022-08-05T05:22:22.884Z,54.02
2022-08-05T05:25:40.462Z,53.14
2022-08-05T05:28:45.004Z,52.21
2022-08-05T05:31:47.219Z,51.72
2022-08-05T05:34:49.779Z,52.47
2022-08-05T05:38:02.526Z,51.33
2022-08-05T05:41:04.846Z,51.45
2022-08-05T05:44:35.545Z,51.65
2022-08-05T05:48:08.039Z,49.69
2022-08-05T05:50:56.183Z,50.48
2022-08-05T05:54:00.049Z,49.15
2022-08-05T05:57:02.740Z,48.32
2022-08-05T06:00:12.854Z,49.06
2022-08-05T06:03:39.785Z,45.83
2022-08-05T06:06:52.979Z,46.76
2022-08-05T06:10:04.395Z,43.55
2022-08-05T06:13:09.724Z,42.74
2022-08-05T06:16:30.335Z,41.48
2022-08-05T06:19:35.608Z,41.65
2022-08-05T06:22:38.094Z,40.52
2022-08-05T06:26:13.511Z,41.06
2022-08-05T06:29:23.451Z,40.52
2022-08-05T06:32:28.826Z,41.11
2022-08-05T06:36:06.972Z,41.59
2022-08-05T06:39:02.329Z,41.42
2022-08-05T06:42:05.991Z,39.29
2022-08-05T06:45:09.414Z,39.00
2022-08-05T06:48:47.193Z,38.80
2022-08-05T06:51:34.228Z,38.68
2022-08-05T06:54:41.059Z,38.02
2022-08-05T06:58:03.524Z,39.05
2022-08-05T07:01:08.093Z,37.82
2022-08-05T07:04:16.184Z,37.88
2022-08-05T07:07:24.161Z,37.73
2022-08-05T07:10:52.337Z,36.93
2022-08-05T07:14:15.333Z,37.29
2022-08-05T07:18:02.422Z,36.39
2022-08-05T07:20:45.385Z,35.12
2022-08-05T07:23:49.946Z,34.19
2022-08-05T07:26:54.531Z,33.06
2022-08-05T07:30:27.579Z,29.88
2022-08-05T07:33:36.438Z,25.67
2022-08-05T07:36:41.106Z,21.28
2022-08-05T07:40:04.431Z,20.84
2022-08-05T07:43:20.504Z,18.14
2022-08-05T07:46:25.100Z,17.76
2022-08-05T07:49:28.330Z,17.74
2022-08-05T07:52:31.108Z,16.44
2022-08-05T07:55:44.371Z,18.00
2022-08-05T07:58:58.867Z,17.37
2022-08-05T08:02:03.109Z,15.95
2022-08-05T08:05:06.126Z,16.20
2022-08-05T08:08:12.192Z,15.93
2022-08-05T08:11:16.158Z,15.75
2022-08-05T08:14:19.167Z,15.48
2022-08-05T08:17:22.230Z,16.52
2022-08-05T08:21:00.085Z,19.36
2022-08-05T08:24:02.764Z,21.66
2022-08-05T08:27:07.381Z,23.61
2022-08-05T08:30:29.811Z,23.46
2022-08-05T08:33:37.344Z,24.51
2022-08-05T08:36:49.015Z,25.95
2022-08-05T08:39:54.839Z,26.73
2022-08-05T08:42:57.413Z,26.40
2022-08-05T08:46:19.640Z,26.36
2022-08-05T08:50:07.582Z,25.75
2022-08-05T08:52:53.671Z,26.32
2022-08-05T08:56:03.041Z,25.99
2022-08-05T08:59:14.830Z,26.16
2022-08-05T09:02:24.170Z,26.25
2022-08-05T09:05:38.324Z,26.00
2022-08-05T09:08:41.759Z,26.25
2022-08-05T09:11:53.341Z,26.05
2022-08-05T09:15:05.682Z,26.09
2022-08-05T09:18:09.035Z,26.10
2022-08-05T09:21:11.706Z,25.50
2022-08-05T09:24:22.791Z,24.79
2022-08-05T09:28:04.450Z,25.61
2022-08-05T09:30:59.370Z,24.46
2022-08-05T09:34:04.337Z,24.78
2022-08-05T09:37:17.023Z,24.41
2022-08-05T09:40:30.159Z,23.82
2022-08-05T09:43:40.560Z,24.21
2022-08-05T09:46:51.828Z,24.94
2022-08-05T09:50:02.408Z,25.31
2022-08-05T09:53:05.562Z,24.40
2022-08-05T09:56:12.972Z,24.56
2022-08-05T09:59:17.552Z,24.37
2022-08-05T10:02:30.686Z,24.61
2022-08-05T10:05:33.477Z,23.93
2022-08-05T10:08:38.197Z,23.61
2022-08-05T10:11:41.558Z,23.79
2022-08-05T10:14:44.883Z,24.01
2022-08-05T10:18:06.128Z,23.63
2022-08-05T10:21:15.678Z,23.47
2022-08-05T10:24:19.528Z,24.18
2022-08-05T10:28:13.290Z,23.33
2022-08-05T10:32:48.641Z,24.10
2022-08-05T10:34:12.022Z,23.27
2022-08-05T10:37:14.995Z,23.14
2022-08-05T10:40:28.202Z,23.08
2022-08-05T10:43:35.818Z,23.79
2022-08-05T10:46:46.258Z,22.98
2022-08-05T10:50:32.545Z,23.18
2022-08-05T10:53:42.561Z,22.99
2022-08-05T10:56:49.297Z,22.69
2022-08-05T11:00:13.360Z,22.83
2022-08-05T11:03:23.392Z,21.79
2022-08-05T11:06:30.787Z,21.78
2022-08-05T11:10:03.960Z,22.02
2022-08-05T11:13:32.246Z,21.67
2022-08-05T11:16:55.944Z,20.90
2022-08-05T11:20:16.813Z,21.56
2022-08-05T11:23:33.444Z,21.16
2022-08-05T11:26:36.246Z,21.70
2022-08-05T11:29:41.022Z,20.83
2022-08-05T11:32:43.300Z,21.37
2022-08-05T11:36:08.365Z,20.93
2022-08-05T11:39:12.311Z,20.71
2022-08-05T11:42:18.396Z,20.63
2022-08-05T11:46:14.489Z,20.75
2022-08-05T11:48:43.679Z,21.64
2022-08-05T11:51:49.508Z,21.16
2022-08-05T11:54:55.034Z,21.38
2022-08-05T11:58:09.677Z,20.85
2022-08-05T12:01:15.538Z,20.70
2022-08-05T12:04:21.702Z,20.77
2022-08-05T12:08:08.963Z,20.68
2022-08-05T12:10:48.822Z,20.97
2022-08-05T12:13:58.612Z,20.83
2022-08-05T12:18:00.727Z,21.09
2022-08-05T12:20:33.541Z,20.91
2022-08-05T12:23:35.925Z,20.22
2022-08-05T12:26:50.172Z,20.22
2022-08-05T12:30:03.345Z,21.07
2022-08-05T12:33:07.295Z,21.93
2022-08-05T12:36:27.917Z,21.71
2022-08-05T12:39:37.504Z,20.81
2022-08-05T12:42:41.204Z,21.03
2022-08-05T12:45:53.218Z,21.23
2022-08-05T12:48:59.276Z,20.73
2022-08-05T12:52:13.901Z,20.75
2022-08-05T12:55:26.320Z,21.25
2022-08-05T12:58:38.591Z,20.84
2022-08-05T13:02:06.998Z,20.34
2022-08-05T13:05:12.541Z,20.56
2022-08-05T13:08:18.200Z,20.48
2022-08-05T13:11:57.883Z,19.86
2022-08-05T13:14:44.619Z,20.13
2022-08-05T13:17:56.193Z,20.27
2022-08-05T13:21:01.412Z,20.76
2022-08-05T13:24:04.357Z,20.92
2022-08-05T13:27:06.448Z,20.73
2022-08-05T13:30:33.561Z,21.63
2022-08-05T13:34:20.920Z,20.80
2022-08-05T13:36:58.400Z,20.84
2022-08-05T13:40:16.439Z,21.68
2022-08-05T13:43:22.793Z,21.15
2022-08-05T13:49:47.662Z,20.61
2022-08-05T13:52:50.692Z,20.00
2022-08-05T13:56:00.190Z,20.43
2022-08-05T13:59:06.245Z,20.47
2022-08-05T14:02:26.712Z,20.35
2022-08-05T14:06:24.714Z,20.44
2022-08-05T14:08:54.286Z,19.94
2022-08-05T14:12:04.057Z,20.61
2022-08-05T14:16:04.465Z,20.10
2022-08-05T14:18:40.894Z,21.31
2022-08-05T14:22:10.184Z,20.94
2022-08-05T14:25:21.568Z,22.16
2022-08-05T14:28:26.211Z,22.34
2022-08-05T14:32:03.917Z,21.11
2022-08-05T14:34:51.849Z,20.82
2022-08-05T14:37:55.665Z,21.51
2022-08-05T14:41:00.099Z,20.58
2022-08-05T14:44:19.896Z,21.65
2022-08-05T14:48:03.644Z,20.99
2022-08-05T14:50:45.744Z,20.65
2022-08-05T14:54:26.869Z,20.78
2022-08-05T14:57:13.687Z,21.63
2022-08-05T15:00:16.231Z,20.84
2022-08-05T15:03:22.963Z,20.76
2022-08-05T15:06:28.128Z,21.42
2022-08-05T15:09:51.770Z,21.31
2022-08-05T15:13:01.068Z,21.19
2022-08-05T15:16:05.866Z,21.24
2022-08-05T15:19:23.603Z,21.08
2022-08-05T15:22:27.328Z,21.55
2022-08-05T15:25:51.441Z,21.76
2022-08-05T15:28:52.834Z,21.92
2022-08-05T15:31:55.153Z,21.69
2022-08-05T15:34:57.748Z,21.31
2022-08-05T15:38:34.582Z,20.96
2022-08-05T15:41:24.606Z,20.85
2022-08-05T15:44:46.090Z,20.87
2022-08-05T15:47:48.264Z,21.43
2022-08-05T15:50:50.730Z,21.92
2022-08-05T15:53:53.314Z,21.48
2022-08-05T15:56:55.369Z,21.80
2022-08-05T15:59:57.902Z,21.10
2022-08-05T16:03:00.478Z,21.89
2022-08-05T16:06:02.808Z,22.26
2022-08-05T16:09:06.667Z,21.70
2022-08-05T16:12:12.278Z,21.27
2022-08-05T16:15:18.593Z,21.26
2022-08-05T16:18:20.897Z,21.98
2022-08-05T16:21:58.619Z,23.11
2022-08-05T16:24:52.381Z,21.78
2022-08-05T16:28:05.247Z,22.73
2022-08-05T16:31:08.225Z,22.07
2022-08-05T16:34:13.044Z,21.44
2022-08-05T16:38:15.022Z,21.91
2022-08-05T16:40:39.575Z,22.71
2022-08-05T16:43:42.177Z,22.19
2022-08-05T16:46:56.151Z,22.63
2022-08-05T16:49:58.511Z,22.28
2022-08-05T16:53:12.089Z,22.83
2022-08-05T16:56:24.034Z,23.55
2022-08-05T16:59:27.881Z,23.68
2022-08-05T17:02:32.801Z,23.35
2022-08-05T17:05:34.719Z,24.10
2022-08-05T17:08:53.316Z,24.46
2022-08-05T17:11:59.315Z,24.78
2022-08-05T17:15:02.125Z,25.14
2022-08-05T17:18:04.950Z,25.36
2022-08-05T17:21:16.426Z,25.73
2022-08-05T17:24:35.232Z,26.45
2022-08-05T17:27:40.962Z,25.89
2022-08-05T17:30:51.871Z,25.68
2022-08-05T17:33:56.524Z,26.31
2022-08-05T17:37:04.643Z,27.02
2022-08-05T17:40:25.158Z,27.23
2022-08-05T17:43:46.502Z,27.36
2022-08-05T17:46:49.428Z,28.23
2022-08-05T17:50:04.061Z,28.85
2022-08-05T17:53:08.618Z,29.71
2022-08-05T17:56:11.858Z,30.36
2022-08-05T17:59:16.031Z,31.04
2022-08-05T18:02:28.597Z,31.75
2022-08-05T18:05:35.595Z,32.46
2022-08-05T18:08:44.277Z,33.15
2022-08-05T18:11:52.387Z,33.73
2022-08-05T18:14:55.209Z,34.23
2022-08-05T18:17:58.612Z,34.99
2022-08-05T18:21:05.100Z,35.40
2022-08-05T18:24:16.769Z,35.74
2022-08-05T18:27:20.509Z,36.15
2022-08-05T18:30:23.205Z,36.69
2022-08-05T18:33:28.318Z,36.75
2022-08-05T18:36:53.054Z,36.88
2022-08-05T18:41:03.396Z,37.14
2022-08-05T18:43:20.834Z,37.64
2022-08-05T18:46:29.046Z,38.00
2022-08-05T18:49:58.058Z,38.33
2022-08-05T18:53:13.138Z,38.50
2022-08-05T18:56:25.235Z,38.75
2022-08-05T18:59:43.559Z,39.28
2022-08-05T19:02:52.387Z,39.49
2022-08-05T19:06:13.417Z,40.01
2022-08-05T19:09:19.125Z,40.53
2022-08-05T19:12:23.503Z,40.69
2022-08-05T19:15:59.816Z,40.76
2022-08-05T19:18:53.899Z,41.31
2022-08-05T19:21:58.863Z,42.10
2022-08-05T19:25:02.542Z,42.28
2022-08-05T19:28:06.925Z,42.29
2022-08-05T19:31:19.223Z,42.32
2022-08-05T19:34:22.012Z,42.42
2022-08-05T19:37:29.956Z,43.03
2022-08-05T19:40:49.028Z,42.99
2022-08-05T19:44:13.702Z,43.26
2022-08-05T19:47:16.621Z,43.41
2022-08-05T19:50:21.025Z,43.43
2022-08-05T19:54:04.549Z,43.57
2022-08-05T19:56:51.271Z,43.71
2022-08-05T20:00:02.386Z,44.12
2022-08-05T20:03:09.144Z,44.15
2022-08-05T20:06:15.525Z,44.39
2022-08-05T20:09:19.276Z,44.34
2022-08-05T20:12:24.430Z,44.72
2022-08-05T20:15:52.050Z,44.85
2022-08-05T20:18:55.424Z,45.56
2022-08-05T20:21:59.560Z,44.22
2022-08-05T20:25:01.696Z,44.71
2022-08-05T20:28:04.597Z,43.66
2022-08-05T20:31:06.720Z,42.96
2022-08-05T20:34:10.696Z,43.41
2022-08-05T20:37:17.893Z,42.80
2022-08-05T20:40:37.809Z,41.85
2022-08-05T20:43:58.728Z,42.56
2022-08-05T20:47:05.122Z,42.55
2022-08-05T20:50:11.961Z,42.67
2022-08-05T20:53:15.942Z,42.40
2022-08-05T20:56:42.146Z,42.81
2022-08-05T21:00:10.740Z,42.79
2022-08-05T21:03:07.859Z,42.84
2022-08-05T21:06:27.636Z,43.24
2022-08-05T21:09:30.799Z,43.86
2022-08-05T21:12:37.910Z,44.00
2022-08-05T21:15:44.329Z,44.09
2022-08-05T21:18:54.707Z,44.49
2022-08-05T21:21:59.334Z,44.85
2022-08-05T21:25:03.298Z,45.25
2022-08-05T21:28:07.928Z,45.73
2022-08-05T21:31:10.675Z,45.99
2022-08-05T21:34:17.732Z,46.17
2022-08-05T21:37:20.574Z,46.46
2022-08-05T21:40:23.807Z,46.66
2022-08-05T21:43:25.985Z,47.13
2022-08-05T21:46:28.617Z,47.45
2022-08-05T21:49:58.636Z,47.67
2022-08-05T21:53:08.341Z,47.97
2022-08-05T21:56:18.746Z,48.36
2022-08-05T21:59:24.224Z,48.68
2022-08-05T22:02:29.052Z,48.81
2022-08-05T22:05:48.708Z,49.15
2022-08-05T22:08:52.421Z,49.82
2022-08-05T22:11:56.293Z,50.44
2022-08-05T22:14:58.905Z,50.51
2022-08-05T22:18:03.982Z,50.54
2022-08-05T22:21:14.151Z,50.93
2022-08-05T22:24:51.809Z,51.79
2022-08-05T22:28:11.309Z,51.75
2022-08-05T22:31:18.121Z,52.39
2022-08-05T22:34:28.647Z,52.43
2022-08-05T22:37:59.328Z,52.67
2022-08-05T22:40:58.583Z,52.38
2022-08-05T22:44:04.612Z,52.67
2022-08-05T22:47:08.122Z,52.20
2022-08-05T22:50:20.485Z,51.84
2022-08-05T22:53:35.922Z,52.19
2022-08-05T22:56:39.945Z,51.81
2022-08-05T22:59:51.869Z,52.41
2022-08-05T23:03:01.522Z,52.59
2022-08-05T23:06:09.332Z,52.73
2022-08-05T23:09:26.975Z,52.08
2022-08-05T23:12:32.439Z,52.63
2022-08-05T23:15:38.529Z,53.22
2022-08-05T23:18:47.581Z,53.28
2022-08-05T23:21:51.503Z,53.80
2022-08-05T23:25:03.458Z,53.97
2022-08-05T23:28:12.558Z,54.59
2022-08-05T23:31:17.928Z,54.76
2022-08-05T23:34:24.564Z,54.96
2022-08-05T23:37:27.363Z,55.31
2022-08-05T23:40:49.746Z,55.10
2022-08-05T23:44:06.158Z,55.58
2022-08-05T23:47:14.400Z,55.76
2022-08-05T23:50:20.242Z,55.46
2022-08-05T23:53:23.297Z,55.51
2022-08-05T23:56:33.697Z,55.78
